sensor_id;sensor_type;location;lat;lon;timestamp;P1;durP1;ratioP1;P2;durP2;ratioP2
77022;SDS011;65952;51.440;-2.054;2023-07-31T00:00:29;5.07;;;1.90;;
77022;SDS011;65952;51.440;-2.054;2023-07-31T00:02:54;4.80;;;1.98;;
77022;SDS011;65952;51.440;-2.054;2023-07-31T00:05:20;5.40;;;2.10;;
77022;SDS011;65952;51.440;-2.054;2023-07-31T00:07:46;6.35;;;2.35;;
77022;SDS011;65952;51.440;-2.054;2023-07-31T00:10:11;7.38;;;2.10;;
77022;SDS011;65952;51.440;-2.054;2023-07-31T00:12:38;5.47;;;1.85;;
77022;SDS011;65952;51.440;-2.054;2023-07-31T00:15:05;6.55;;;1.92;;
77022;SDS011;65952;51.440;-2.054;2023-07-31T00:17:32;7.40;;;2.20;;
77022;SDS011;65952;51.440;-2.054;2023-07-31T00:19:57;5.28;;;2.20;;
77022;SDS011;65952;51.440;-2.054;2023-07-31T00:22:23;4.57;;;1.80;;
77022;SDS011;65952;51.440;-2.054;2023-07-31T00:24:48;4.90;;;1.83;;
77022;SDS011;65952;51.440;-2.054;2023-07-31T00:27:13;4.40;;;2.00;;
77022;SDS011;65952;51.440;-2.054;2023-07-31T00:29:39;5.32;;;2.00;;
77022;SDS011;65952;51.440;-2.054;2023-07-31T00:32:04;5.18;;;2.50;;
77022;SDS011;65952;51.440;-2.054;2023-07-31T00:34:30;6.80;;;2.30;;
77022;SDS011;65952;51.440;-2.054;2023-07-31T00:36:55;5.45;;;1.83;;
77022;SDS011;65952;51.440;-2.054;2023-07-31T00:39:21;6.05;;;2.30;;
77022;SDS011;65952;51.440;-2.054;2023-07-31T00:41:46;5.32;;;2.25;;
77022;SDS011;65952;51.440;-2.054;2023-07-31T00:44:12;6.95;;;2.22;;
77022;SDS011;65952;51.440;-2.054;2023-07-31T00:46:37;5.35;;;2.20;;
77022;SDS011;65952;51.440;-2.054;2023-07-31T00:49:03;4.43;;;2.20;;
77022;SDS011;65952;51.440;-2.054;2023-07-31T00:51:29;4.93;;;2.25;;
77022;SDS011;65952;51.440;-2.054;2023-07-31T00:53:55;5.78;;;2.08;;
77022;SDS011;65952;51.440;-2.054;2023-07-31T00:56:21;6.20;;;2.30;;
77022;SDS011;65952;51.440;-2.054;2023-07-31T00:58:47;3.92;;;1.80;;
77022;SDS011;65952;51.440;-2.054;2023-07-31T01:01:12;6.78;;;2.30;;
77022;SDS011;65952;51.440;-2.054;2023-07-31T01:03:37;5.57;;;2.10;;
77022;SDS011;65952;51.440;-2.054;2023-07-31T01:08:51;5.57;;;2.30;;
77022;SDS011;65952;51.440;-2.054;2023-07-31T01:11:27;4.82;;;2.30;;
77022;SDS011;65952;51.440;-2.054;2023-07-31T01:13:55;8.18;;;2.35;;
77022;SDS011;65952;51.440;-2.054;2023-07-31T01:16:20;9.52;;;2.70;;
77022;SDS011;65952;51.440;-2.054;2023-07-31T01:18:46;6.13;;;2.50;;
77022;SDS011;65952;51.440;-2.054;2023-07-31T01:26:40;6.78;;;2.42;;
77022;SDS011;65952;51.440;-2.054;2023-07-31T01:31:44;6.88;;;2.63;;
77022;SDS011;65952;51.440;-2.054;2023-07-31T01:34:13;4.95;;;2.28;;
77022;SDS011;65952;51.440;-2.054;2023-07-31T01:36:41;6.13;;;2.60;;
77022;SDS011;65952;51.440;-2.054;2023-07-31T01:39:06;6.97;;;2.53;;
77022;SDS011;65952;51.440;-2.054;2023-07-31T01:41:32;5.68;;;2.60;;
77022;SDS011;65952;51.440;-2.054;2023-07-31T01:43:57;7.32;;;2.50;;
77022;SDS011;65952;51.440;-2.054;2023-07-31T01:46:23;5.88;;;2.30;;
77022;SDS011;65952;51.440;-2.054;2023-07-31T01:48:48;6.90;;;2.63;;
77022;SDS011;65952;51.440;-2.054;2023-07-31T01:51:13;7.72;;;2.65;;
77022;SDS011;65952;51.440;-2.054;2023-07-31T01:53:39;8.38;;;2.50;;
77022;SDS011;65952;51.440;-2.054;2023-07-31T01:56:04;9.50;;;2.55;;
77022;SDS011;65952;51.440;-2.054;2023-07-31T01:58:29;6.78;;;2.53;;
77022;SDS011;65952;51.440;-2.054;2023-07-31T02:00:55;7.50;;;2.63;;
77022;SDS011;65952;51.440;-2.054;2023-07-31T02:03:20;6.63;;;2.40;;
77022;SDS011;65952;51.440;-2.054;2023-07-31T02:05:49;8.93;;;2.40;;
77022;SDS011;65952;51.440;-2.054;2023-07-31T02:08:15;6.07;;;2.20;;
77022;SDS011;65952;51.440;-2.054;2023-07-31T02:10:41;5.78;;;2.25;;
77022;SDS011;65952;51.440;-2.054;2023-07-31T02:13:07;7.18;;;2.25;;
77022;SDS011;65952;51.440;-2.054;2023-07-31T02:15:33;6.20;;;2.40;;
77022;SDS011;65952;51.440;-2.054;2023-07-31T02:17:59;6.13;;;2.13;;
77022;SDS011;65952;51.440;-2.054;2023-07-31T02:20:24;7.15;;;2.15;;
77022;SDS011;65952;51.440;-2.054;2023-07-31T02:22:50;6.75;;;2.10;;
77022;SDS011;65952;51.440;-2.054;2023-07-31T02:25:16;6.22;;;2.08;;
77022;SDS011;65952;51.440;-2.054;2023-07-31T02:27:41;6.00;;;2.00;;
77022;SDS011;65952;51.440;-2.054;2023-07-31T02:30:07;6.43;;;2.10;;
77022;SDS011;65952;51.440;-2.054;2023-07-31T02:32:33;4.97;;;1.92;;
77022;SDS011;65952;51.440;-2.054;2023-07-31T02:34:58;4.20;;;1.88;;
77022;SDS011;65952;51.440;-2.054;2023-07-31T02:37:24;6.18;;;1.90;;
77022;SDS011;65952;51.440;-2.054;2023-07-31T02:39:50;7.32;;;2.10;;
77022;SDS011;65952;51.440;-2.054;2023-07-31T02:42:15;4.93;;;1.90;;
77022;SDS011;65952;51.440;-2.054;2023-07-31T02:44:40;5.10;;;1.83;;
77022;SDS011;65952;51.440;-2.054;2023-07-31T02:47:06;3.83;;;1.65;;
77022;SDS011;65952;51.440;-2.054;2023-07-31T02:49:31;2.88;;;1.45;;
77022;SDS011;65952;51.440;-2.054;2023-07-31T02:51:57;4.57;;;1.58;;
77022;SDS011;65952;51.440;-2.054;2023-07-31T02:54:22;3.72;;;1.77;;
77022;SDS011;65952;51.440;-2.054;2023-07-31T02:56:48;2.38;;;1.35;;
77022;SDS011;65952;51.440;-2.054;2023-07-31T02:59:13;3.95;;;1.58;;
77022;SDS011;65952;51.440;-2.054;2023-07-31T03:01:38;3.15;;;1.60;;
77022;SDS011;65952;51.440;-2.054;2023-07-31T03:04:04;3.03;;;1.48;;
77022;SDS011;65952;51.440;-2.054;2023-07-31T03:06:29;3.33;;;1.60;;
77022;SDS011;65952;51.440;-2.054;2023-07-31T03:08:55;2.97;;;1.60;;
77022;SDS011;65952;51.440;-2.054;2023-07-31T03:11:20;3.15;;;1.50;;
77022;SDS011;65952;51.440;-2.054;2023-07-31T03:13:46;4.57;;;1.50;;
77022;SDS011;65952;51.440;-2.054;2023-07-31T03:16:11;3.80;;;1.45;;
77022;SDS011;65952;51.440;-2.054;2023-07-31T03:18:36;3.58;;;1.40;;
77022;SDS011;65952;51.440;-2.054;2023-07-31T03:21:02;3.05;;;1.30;;
77022;SDS011;65952;51.440;-2.054;2023-07-31T03:23:27;2.42;;;1.30;;
77022;SDS011;65952;51.440;-2.054;2023-07-31T03:25:57;1.88;;;1.10;;
77022;SDS011;65952;51.440;-2.054;2023-07-31T03:28:23;2.40;;;1.23;;
77022;SDS011;65952;51.440;-2.054;2023-07-31T03:30:48;4.75;;;1.30;;
77022;SDS011;65952;51.440;-2.054;2023-07-31T03:33:14;3.95;;;1.20;;
77022;SDS011;65952;51.440;-2.054;2023-07-31T03:35:39;1.92;;;1.13;;
77022;SDS011;65952;51.440;-2.054;2023-07-31T03:38:04;3.72;;;1.25;;
77022;SDS011;65952;51.440;-2.054;2023-07-31T03:40:30;2.17;;;1.20;;
77022;SDS011;65952;51.440;-2.054;2023-07-31T03:42:55;3.55;;;1.30;;
77022;SDS011;65952;51.440;-2.054;2023-07-31T03:45:21;2.25;;;1.10;;
77022;SDS011;65952;51.440;-2.054;2023-07-31T03:47:46;4.28;;;1.52;;
77022;SDS011;65952;51.440;-2.054;2023-07-31T03:50:11;3.10;;;1.27;;
77022;SDS011;65952;51.440;-2.054;2023-07-31T03:52:37;2.92;;;1.40;;
77022;SDS011;65952;51.440;-2.054;2023-07-31T03:55:02;4.68;;;2.00;;
77022;SDS011;65952;51.440;-2.054;2023-07-31T03:57:28;6.22;;;1.63;;
77022;SDS011;65952;51.440;-2.054;2023-07-31T03:59:53;4.88;;;2.05;;
77022;SDS011;65952;51.440;-2.054;2023-07-31T04:02:18;4.80;;;2.08;;
77022;SDS011;65952;51.440;-2.054;2023-07-31T04:04:45;4.03;;;1.77;;
77022;SDS011;65952;51.440;-2.054;2023-07-31T04:07:11;4.20;;;2.20;;
77022;SDS011;65952;51.440;-2.054;2023-07-31T04:09:36;5.97;;;2.20;;
77022;SDS011;65952;51.440;-2.054;2023-07-31T04:12:01;7.45;;;2.17;;
77022;SDS011;65952;51.440;-2.054;2023-07-31T04:14:27;7.18;;;2.35;;
77022;SDS011;65952;51.440;-2.054;2023-07-31T04:16:52;5.90;;;2.65;;
77022;SDS011;65952;51.440;-2.054;2023-07-31T04:19:17;12.63;;;2.80;;
77022;SDS011;65952;51.440;-2.054;2023-07-31T04:21:43;6.25;;;2.60;;
77022;SDS011;65952;51.440;-2.054;2023-07-31T04:24:08;5.82;;;2.08;;
77022;SDS011;65952;51.440;-2.054;2023-07-31T04:26:34;5.85;;;2.58;;
77022;SDS011;65952;51.440;-2.054;2023-07-31T04:28:59;10.90;;;2.58;;
77022;SDS011;65952;51.440;-2.054;2023-07-31T04:31:25;6.38;;;2.55;;
77022;SDS011;65952;51.440;-2.054;2023-07-31T04:33:50;9.05;;;2.72;;
77022;SDS011;65952;51.440;-2.054;2023-07-31T04:36:15;9.77;;;2.83;;
77022;SDS011;65952;51.440;-2.054;2023-07-31T04:38:41;7.47;;;2.50;;
77022;SDS011;65952;51.440;-2.054;2023-07-31T04:41:06;9.00;;;2.30;;
77022;SDS011;65952;51.440;-2.054;2023-07-31T04:43:32;8.93;;;3.03;;
77022;SDS011;65952;51.440;-2.054;2023-07-31T04:45:57;6.30;;;2.67;;
77022;SDS011;65952;51.440;-2.054;2023-07-31T04:48:23;9.35;;;3.08;;
77022;SDS011;65952;51.440;-2.054;2023-07-31T04:50:48;6.07;;;2.50;;
77022;SDS011;65952;51.440;-2.054;2023-07-31T04:53:14;7.22;;;2.38;;
77022;SDS011;65952;51.440;-2.054;2023-07-31T04:55:39;5.45;;;2.28;;
77022;SDS011;65952;51.440;-2.054;2023-07-31T04:58:05;8.20;;;2.80;;
77022;SDS011;65952;51.440;-2.054;2023-07-31T05:00:30;5.40;;;2.63;;
77022;SDS011;65952;51.440;-2.054;2023-07-31T05:02:56;8.98;;;2.53;;
77022;SDS011;65952;51.440;-2.054;2023-07-31T05:05:21;9.18;;;2.47;;
77022;SDS011;65952;51.440;-2.054;2023-07-31T05:07:47;7.85;;;2.80;;
77022;SDS011;65952;51.440;-2.054;2023-07-31T05:10:12;8.75;;;2.90;;
77022;SDS011;65952;51.440;-2.054;2023-07-31T05:12:38;9.05;;;2.70;;
77022;SDS011;65952;51.440;-2.054;2023-07-31T05:15:03;6.65;;;2.35;;
77022;SDS011;65952;51.440;-2.054;2023-07-31T05:17:29;4.95;;;2.20;;
77022;SDS011;65952;51.440;-2.054;2023-07-31T05:19:54;7.10;;;2.50;;
77022;SDS011;65952;51.440;-2.054;2023-07-31T05:22:20;8.32;;;2.75;;
77022;SDS011;65952;51.440;-2.054;2023-07-31T05:24:45;8.57;;;2.83;;
77022;SDS011;65952;51.440;-2.054;2023-07-31T05:27:11;7.93;;;2.60;;
77022;SDS011;65952;51.440;-2.054;2023-07-31T05:29:37;9.00;;;2.50;;
77022;SDS011;65952;51.440;-2.054;2023-07-31T05:32:02;6.63;;;2.42;;
77022;SDS011;65952;51.440;-2.054;2023-07-31T05:34:28;15.52;;;3.17;;
77022;SDS011;65952;51.440;-2.054;2023-07-31T05:36:54;6.88;;;2.63;;
77022;SDS011;65952;51.440;-2.054;2023-07-31T05:39:19;8.25;;;2.63;;
77022;SDS011;65952;51.440;-2.054;2023-07-31T05:41:45;6.90;;;2.92;;
77022;SDS011;65952;51.440;-2.054;2023-07-31T05:44:10;5.78;;;2.58;;
77022;SDS011;65952;51.440;-2.054;2023-07-31T05:46:36;7.38;;;2.70;;
77022;SDS011;65952;51.440;-2.054;2023-07-31T05:49:01;7.57;;;2.80;;
77022;SDS011;65952;51.440;-2.054;2023-07-31T05:51:27;8.52;;;2.78;;
77022;SDS011;65952;51.440;-2.054;2023-07-31T05:53:53;7.05;;;2.80;;
77022;SDS011;65952;51.440;-2.054;2023-07-31T05:56:18;6.53;;;2.83;;
77022;SDS011;65952;51.440;-2.054;2023-07-31T05:58:44;9.85;;;3.15;;
77022;SDS011;65952;51.440;-2.054;2023-07-31T06:01:09;7.20;;;2.95;;
77022;SDS011;65952;51.440;-2.054;2023-07-31T06:03:35;6.88;;;3.15;;
77022;SDS011;65952;51.440;-2.054;2023-07-31T06:06:00;8.93;;;2.88;;
77022;SDS011;65952;51.440;-2.054;2023-07-31T06:08:26;7.32;;;3.03;;
77022;SDS011;65952;51.440;-2.054;2023-07-31T06:10:54;10.20;;;3.05;;
77022;SDS011;65952;51.440;-2.054;2023-07-31T06:13:19;5.25;;;2.45;;
77022;SDS011;65952;51.440;-2.054;2023-07-31T06:15:45;7.15;;;2.65;;
77022;SDS011;65952;51.440;-2.054;2023-07-31T06:18:10;6.90;;;2.80;;
77022;SDS011;65952;51.440;-2.054;2023-07-31T06:20:35;7.03;;;2.83;;
77022;SDS011;65952;51.440;-2.054;2023-07-31T06:23:01;6.93;;;2.90;;
77022;SDS011;65952;51.440;-2.054;2023-07-31T06:25:27;6.95;;;2.90;;
77022;SDS011;65952;51.440;-2.054;2023-07-31T06:27:52;7.82;;;3.13;;
77022;SDS011;65952;51.440;-2.054;2023-07-31T06:30:18;7.47;;;3.10;;
77022;SDS011;65952;51.440;-2.054;2023-07-31T06:32:44;8.43;;;2.78;;
77022;SDS011;65952;51.440;-2.054;2023-07-31T06:35:09;8.20;;;2.80;;
77022;SDS011;65952;51.440;-2.054;2023-07-31T06:37:35;6.25;;;2.85;;
77022;SDS011;65952;51.440;-2.054;2023-07-31T06:40:00;6.07;;;3.15;;
77022;SDS011;65952;51.440;-2.054;2023-07-31T06:42:26;8.90;;;2.72;;
77022;SDS011;65952;51.440;-2.054;2023-07-31T06:44:51;6.15;;;3.00;;
77022;SDS011;65952;51.440;-2.054;2023-07-31T06:47:17;7.03;;;3.10;;
77022;SDS011;65952;51.440;-2.054;2023-07-31T06:49:42;7.50;;;2.80;;
77022;SDS011;65952;51.440;-2.054;2023-07-31T06:52:08;6.50;;;2.42;;
77022;SDS011;65952;51.440;-2.054;2023-07-31T06:54:34;7.75;;;3.38;;
77022;SDS011;65952;51.440;-2.054;2023-07-31T06:57:00;7.15;;;2.60;;
77022;SDS011;65952;51.440;-2.054;2023-07-31T06:59:25;6.50;;;2.60;;
77022;SDS011;65952;51.440;-2.054;2023-07-31T07:01:50;6.25;;;2.60;;
77022;SDS011;65952;51.440;-2.054;2023-07-31T07:04:16;6.60;;;2.50;;
77022;SDS011;65952;51.440;-2.054;2023-07-31T07:06:41;7.80;;;2.53;;
77022;SDS011;65952;51.440;-2.054;2023-07-31T07:09:07;4.55;;;2.30;;
77022;SDS011;65952;51.440;-2.054;2023-07-31T07:11:33;7.10;;;2.92;;
77022;SDS011;65952;51.440;-2.054;2023-07-31T07:13:59;6.78;;;2.55;;
77022;SDS011;65952;51.440;-2.054;2023-07-31T07:16:24;4.93;;;2.22;;
77022;SDS011;65952;51.440;-2.054;2023-07-31T07:18:50;5.88;;;2.45;;
77022;SDS011;65952;51.440;-2.054;2023-07-31T07:21:15;8.85;;;2.88;;
77022;SDS011;65952;51.440;-2.054;2023-07-31T07:23:42;6.38;;;2.15;;
77022;SDS011;65952;51.440;-2.054;2023-07-31T07:26:08;5.95;;;2.13;;
77022;SDS011;65952;51.440;-2.054;2023-07-31T07:28:33;6.13;;;1.95;;
77022;SDS011;65952;51.440;-2.054;2023-07-31T07:30:59;5.72;;;1.88;;
77022;SDS011;65952;51.440;-2.054;2023-07-31T07:33:24;4.13;;;1.90;;
77022;SDS011;65952;51.440;-2.054;2023-07-31T07:35:50;5.68;;;2.10;;
77022;SDS011;65952;51.440;-2.054;2023-07-31T07:38:15;6.22;;;2.20;;
77022;SDS011;65952;51.440;-2.054;2023-07-31T07:40:41;4.45;;;1.80;;
77022;SDS011;65952;51.440;-2.054;2023-07-31T07:43:06;5.45;;;2.00;;
77022;SDS011;65952;51.440;-2.054;2023-07-31T07:45:33;4.88;;;2.20;;
77022;SDS011;65952;51.440;-2.054;2023-07-31T07:47:58;6.25;;;2.05;;
77022;SDS011;65952;51.440;-2.054;2023-07-31T07:50:24;6.47;;;2.38;;
77022;SDS011;65952;51.440;-2.054;2023-07-31T07:52:49;5.45;;;1.80;;
77022;SDS011;65952;51.440;-2.054;2023-07-31T07:55:15;6.45;;;2.22;;
77022;SDS011;65952;51.440;-2.054;2023-07-31T07:57:40;4.72;;;1.92;;
77022;SDS011;65952;51.440;-2.054;2023-07-31T08:00:06;6.25;;;2.00;;
77022;SDS011;65952;51.440;-2.054;2023-07-31T08:02:32;10.07;;;2.17;;
77022;SDS011;65952;51.440;-2.054;2023-07-31T08:04:57;6.03;;;2.00;;
77022;SDS011;65952;51.440;-2.054;2023-07-31T08:07:22;5.32;;;2.05;;
77022;SDS011;65952;51.440;-2.054;2023-07-31T08:09:48;5.38;;;2.00;;
77022;SDS011;65952;51.440;-2.054;2023-07-31T08:12:13;5.07;;;1.83;;
77022;SDS011;65952;51.440;-2.054;2023-07-31T08:14:39;3.70;;;2.00;;
77022;SDS011;65952;51.440;-2.054;2023-07-31T08:17:04;5.43;;;2.20;;
77022;SDS011;65952;51.440;-2.054;2023-07-31T08:19:30;5.30;;;1.70;;
77022;SDS011;65952;51.440;-2.054;2023-07-31T08:21:55;5.80;;;1.88;;
77022;SDS011;65952;51.440;-2.054;2023-07-31T08:24:21;8.73;;;1.92;;
77022;SDS011;65952;51.440;-2.054;2023-07-31T08:26:46;6.82;;;2.17;;
77022;SDS011;65952;51.440;-2.054;2023-07-31T08:29:12;4.65;;;1.65;;
77022;SDS011;65952;51.440;-2.054;2023-07-31T08:31:37;3.33;;;1.65;;
77022;SDS011;65952;51.440;-2.054;2023-07-31T08:34:03;5.13;;;1.73;;
77022;SDS011;65952;51.440;-2.054;2023-07-31T08:36:28;5.63;;;1.80;;
77022;SDS011;65952;51.440;-2.054;2023-07-31T08:38:53;5.43;;;1.80;;
77022;SDS011;65952;51.440;-2.054;2023-07-31T08:41:19;5.32;;;1.88;;
77022;SDS011;65952;51.440;-2.054;2023-07-31T08:43:49;4.38;;;2.00;;
77022;SDS011;65952;51.440;-2.054;2023-07-31T08:46:15;3.72;;;1.90;;
77022;SDS011;65952;51.440;-2.054;2023-07-31T08:48:43;5.30;;;2.40;;
77022;SDS011;65952;51.440;-2.054;2023-07-31T08:51:10;7.07;;;2.20;;
77022;SDS011;65952;51.440;-2.054;2023-07-31T08:53:36;4.30;;;1.80;;
77022;SDS011;65952;51.440;-2.054;2023-07-31T08:56:01;4.38;;;1.83;;
77022;SDS011;65952;51.440;-2.054;2023-07-31T08:58:27;5.43;;;2.10;;
77022;SDS011;65952;51.440;-2.054;2023-07-31T09:00:56;4.25;;;2.20;;
77022;SDS011;65952;51.440;-2.054;2023-07-31T09:03:24;7.07;;;1.90;;
77022;SDS011;65952;51.440;-2.054;2023-07-31T09:05:51;4.53;;;1.77;;
77022;SDS011;65952;51.440;-2.054;2023-07-31T09:08:19;5.32;;;2.40;;
77022;SDS011;65952;51.440;-2.054;2023-07-31T09:10:46;4.93;;;2.00;;
77022;SDS011;65952;51.440;-2.054;2023-07-31T09:13:13;5.68;;;2.25;;
77022;SDS011;65952;51.440;-2.054;2023-07-31T09:15:39;7.43;;;2.30;;
77022;SDS011;65952;51.440;-2.054;2023-07-31T09:18:07;6.53;;;2.33;;
77022;SDS011;65952;51.440;-2.054;2023-07-31T09:20:33;6.40;;;2.50;;
77022;SDS011;65952;51.440;-2.054;2023-07-31T09:23:06;4.82;;;2.25;;
77022;SDS011;65952;51.440;-2.054;2023-07-31T09:25:33;5.55;;;2.40;;
77022;SDS011;65952;51.440;-2.054;2023-07-31T09:27:59;8.73;;;2.50;;
77022;SDS011;65952;51.440;-2.054;2023-07-31T09:30:26;5.90;;;2.15;;
77022;SDS011;65952;51.440;-2.054;2023-07-31T09:33:00;4.68;;;2.08;;
77022;SDS011;65952;51.440;-2.054;2023-07-31T09:35:30;7.80;;;2.65;;
77022;SDS011;65952;51.440;-2.054;2023-07-31T09:38:07;5.35;;;2.30;;
77022;SDS011;65952;51.440;-2.054;2023-07-31T09:40:41;7.68;;;2.60;;
77022;SDS011;65952;51.440;-2.054;2023-07-31T09:43:08;6.72;;;2.17;;
77022;SDS011;65952;51.440;-2.054;2023-07-31T09:45:39;5.00;;;2.30;;
77022;SDS011;65952;51.440;-2.054;2023-07-31T09:48:09;9.30;;;2.40;;
77022;SDS011;65952;51.440;-2.054;2023-07-31T09:50:39;5.78;;;2.53;;
77022;SDS011;65952;51.440;-2.054;2023-07-31T09:53:06;6.50;;;2.53;;
77022;SDS011;65952;51.440;-2.054;2023-07-31T09:55:34;6.82;;;2.50;;
77022;SDS011;65952;51.440;-2.054;2023-07-31T09:58:07;6.30;;;2.60;;
77022;SDS011;65952;51.440;-2.054;2023-07-31T10:00:36;6.45;;;2.85;;
77022;SDS011;65952;51.440;-2.054;2023-07-31T10:03:06;6.25;;;3.55;;
77022;SDS011;65952;51.440;-2.054;2023-07-31T10:05:37;9.85;;;3.17;;
77022;SDS011;65952;51.440;-2.054;2023-07-31T10:08:06;6.10;;;2.65;;
77022;SDS011;65952;51.440;-2.054;2023-07-31T10:10:35;7.30;;;3.00;;
77022;SDS011;65952;51.440;-2.054;2023-07-31T10:13:02;13.65;;;4.60;;
77022;SDS011;65952;51.440;-2.054;2023-07-31T10:15:29;7.75;;;2.83;;
77022;SDS011;65952;51.440;-2.054;2023-07-31T10:17:56;7.40;;;2.85;;
77022;SDS011;65952;51.440;-2.054;2023-07-31T10:20:23;8.48;;;2.83;;
77022;SDS011;65952;51.440;-2.054;2023-07-31T10:22:50;12.27;;;3.13;;
77022;SDS011;65952;51.440;-2.054;2023-07-31T10:25:16;8.05;;;2.88;;
77022;SDS011;65952;51.440;-2.054;2023-07-31T10:27:44;9.23;;;3.28;;
77022;SDS011;65952;51.440;-2.054;2023-07-31T10:30:14;8.50;;;3.00;;
77022;SDS011;65952;51.440;-2.054;2023-07-31T10:32:41;8.38;;;3.30;;
77022;SDS011;65952;51.440;-2.054;2023-07-31T10:35:09;8.35;;;2.60;;
77022;SDS011;65952;51.440;-2.054;2023-07-31T10:37:41;9.90;;;3.45;;
77022;SDS011;65952;51.440;-2.054;2023-07-31T10:40:12;8.57;;;3.10;;
77022;SDS011;65952;51.440;-2.054;2023-07-31T10:42:45;10.90;;;3.10;;
77022;SDS011;65952;51.440;-2.054;2023-07-31T10:45:13;13.18;;;3.72;;
77022;SDS011;65952;51.440;-2.054;2023-07-31T10:47:45;12.85;;;3.70;;
77022;SDS011;65952;51.440;-2.054;2023-07-31T10:52:49;11.95;;;4.22;;
77022;SDS011;65952;51.440;-2.054;2023-07-31T10:55:26;9.80;;;3.63;;
77022;SDS011;65952;51.440;-2.054;2023-07-31T10:57:52;8.60;;;3.90;;
77022;SDS011;65952;51.440;-2.054;2023-07-31T11:00:23;11.43;;;4.05;;
77022;SDS011;65952;51.440;-2.054;2023-07-31T11:02:58;10.50;;;3.80;;
77022;SDS011;65952;51.440;-2.054;2023-07-31T11:05:41;9.00;;;3.60;;
77022;SDS011;65952;51.440;-2.054;2023-07-31T11:08:15;10.68;;;3.80;;
77022;SDS011;65952;51.440;-2.054;2023-07-31T11:10:47;9.65;;;4.00;;
77022;SDS011;65952;51.440;-2.054;2023-07-31T11:13:14;11.38;;;3.67;;
77022;SDS011;65952;51.440;-2.054;2023-07-31T11:15:40;10.32;;;4.03;;
77022;SDS011;65952;51.440;-2.054;2023-07-31T11:18:06;13.88;;;4.22;;
77022;SDS011;65952;51.440;-2.054;2023-07-31T11:20:33;13.27;;;3.38;;
77022;SDS011;65952;51.440;-2.054;2023-07-31T11:23:02;11.93;;;4.28;;
77022;SDS011;65952;51.440;-2.054;2023-07-31T11:25:32;12.15;;;3.85;;
77022;SDS011;65952;51.440;-2.054;2023-07-31T11:28:04;11.27;;;4.00;;
77022;SDS011;65952;51.440;-2.054;2023-07-31T11:30:40;11.27;;;3.97;;
77022;SDS011;65952;51.440;-2.054;2023-07-31T11:33:07;7.20;;;3.63;;
77022;SDS011;65952;51.440;-2.054;2023-07-31T11:35:35;10.90;;;3.63;;
77022;SDS011;65952;51.440;-2.054;2023-07-31T11:38:06;9.50;;;3.75;;
77022;SDS011;65952;51.440;-2.054;2023-07-31T11:40:40;8.45;;;3.72;;
77022;SDS011;65952;51.440;-2.054;2023-07-31T11:43:07;10.38;;;3.65;;
77022;SDS011;65952;51.440;-2.054;2023-07-31T11:45:34;15.23;;;4.45;;
77022;SDS011;65952;51.440;-2.054;2023-07-31T11:48:03;11.60;;;3.78;;
77022;SDS011;65952;51.440;-2.054;2023-07-31T11:50:28;12.63;;;4.13;;
77022;SDS011;65952;51.440;-2.054;2023-07-31T11:52:59;12.82;;;3.92;;
77022;SDS011;65952;51.440;-2.054;2023-07-31T11:55:28;10.20;;;3.85;;
77022;SDS011;65952;51.440;-2.054;2023-07-31T11:57:56;11.10;;;4.03;;
77022;SDS011;65952;51.440;-2.054;2023-07-31T12:00:23;12.27;;;3.80;;
77022;SDS011;65952;51.440;-2.054;2023-07-31T12:02:50;14.45;;;4.35;;
77022;SDS011;65952;51.440;-2.054;2023-07-31T12:05:15;13.52;;;4.47;;
77022;SDS011;65952;51.440;-2.054;2023-07-31T12:07:49;10.88;;;3.90;;
77022;SDS011;65952;51.440;-2.054;2023-07-31T12:10:30;12.43;;;3.80;;
77022;SDS011;65952;51.440;-2.054;2023-07-31T12:15:37;16.42;;;4.82;;
77022;SDS011;65952;51.440;-2.054;2023-07-31T12:18:08;12.25;;;4.60;;
77022;SDS011;65952;51.440;-2.054;2023-07-31T12:20:35;11.45;;;3.88;;
77022;SDS011;65952;51.440;-2.054;2023-07-31T12:23:06;11.23;;;4.07;;
77022;SDS011;65952;51.440;-2.054;2023-07-31T12:25:32;11.32;;;3.83;;
77022;SDS011;65952;51.440;-2.054;2023-07-31T12:28:03;12.10;;;4.00;;
77022;SDS011;65952;51.440;-2.054;2023-07-31T12:30:31;11.55;;;4.50;;
77022;SDS011;65952;51.440;-2.054;2023-07-31T12:32:57;9.80;;;4.00;;
77022;SDS011;65952;51.440;-2.054;2023-07-31T12:35:33;13.63;;;4.00;;
77022;SDS011;65952;51.440;-2.054;2023-07-31T12:38:03;13.50;;;4.38;;
77022;SDS011;65952;51.440;-2.054;2023-07-31T12:40:28;11.30;;;3.75;;
77022;SDS011;65952;51.440;-2.054;2023-07-31T12:42:54;11.75;;;4.00;;
77022;SDS011;65952;51.440;-2.054;2023-07-31T12:45:19;10.15;;;4.13;;
77022;SDS011;65952;51.440;-2.054;2023-07-31T12:47:46;9.57;;;3.83;;
77022;SDS011;65952;51.440;-2.054;2023-07-31T12:50:12;8.25;;;4.32;;
77022;SDS011;65952;51.440;-2.054;2023-07-31T12:52:37;10.90;;;3.95;;
77022;SDS011;65952;51.440;-2.054;2023-07-31T12:55:03;9.45;;;3.38;;
77022;SDS011;65952;51.440;-2.054;2023-07-31T12:57:29;10.98;;;3.80;;
77022;SDS011;65952;51.440;-2.054;2023-07-31T12:59:55;10.63;;;3.90;;
77022;SDS011;65952;51.440;-2.054;2023-07-31T13:02:21;15.15;;;3.85;;
77022;SDS011;65952;51.440;-2.054;2023-07-31T13:04:46;9.52;;;3.70;;
77022;SDS011;65952;51.440;-2.054;2023-07-31T13:07:12;11.27;;;4.43;;
77022;SDS011;65952;51.440;-2.054;2023-07-31T13:09:37;11.93;;;4.18;;
77022;SDS011;65952;51.440;-2.054;2023-07-31T13:12:02;12.45;;;4.43;;
77022;SDS011;65952;51.440;-2.054;2023-07-31T13:14:28;11.43;;;3.90;;
77022;SDS011;65952;51.440;-2.054;2023-07-31T13:16:54;7.93;;;3.80;;
77022;SDS011;65952;51.440;-2.054;2023-07-31T13:19:19;12.82;;;4.10;;
77022;SDS011;65952;51.440;-2.054;2023-07-31T13:21:44;10.63;;;3.72;;
77022;SDS011;65952;51.440;-2.054;2023-07-31T13:24:10;11.07;;;3.65;;
77022;SDS011;65952;51.440;-2.054;2023-07-31T13:26:36;10.05;;;3.70;;
77022;SDS011;65952;51.440;-2.054;2023-07-31T13:29:04;9.18;;;3.60;;
77022;SDS011;65952;51.440;-2.054;2023-07-31T13:31:29;11.68;;;3.85;;
77022;SDS011;65952;51.440;-2.054;2023-07-31T13:33:55;8.73;;;3.72;;
77022;SDS011;65952;51.440;-2.054;2023-07-31T13:36:20;10.88;;;3.80;;
77022;SDS011;65952;51.440;-2.054;2023-07-31T13:38:48;8.30;;;3.47;;
77022;SDS011;65952;51.440;-2.054;2023-07-31T13:41:13;12.02;;;4.03;;
77022;SDS011;65952;51.440;-2.054;2023-07-31T13:43:38;8.55;;;3.88;;
77022;SDS011;65952;51.440;-2.054;2023-07-31T13:46:04;11.93;;;4.32;;
77022;SDS011;65952;51.440;-2.054;2023-07-31T13:48:33;7.20;;;3.38;;
77022;SDS011;65952;51.440;-2.054;2023-07-31T13:50:59;11.05;;;3.97;;
77022;SDS011;65952;51.440;-2.054;2023-07-31T13:53:25;8.38;;;3.13;;
77022;SDS011;65952;51.440;-2.054;2023-07-31T13:55:50;9.20;;;3.90;;
77022;SDS011;65952;51.440;-2.054;2023-07-31T13:58:16;8.15;;;3.70;;
77022;SDS011;65952;51.440;-2.054;2023-07-31T14:00:42;8.38;;;3.53;;
77022;SDS011;65952;51.440;-2.054;2023-07-31T14:03:07;11.85;;;3.67;;
77022;SDS011;65952;51.440;-2.054;2023-07-31T14:05:33;8.93;;;3.67;;
77022;SDS011;65952;51.440;-2.054;2023-07-31T14:07:58;10.98;;;4.47;;
77022;SDS011;65952;51.440;-2.054;2023-07-31T14:10:24;11.82;;;3.85;;
77022;SDS011;65952;51.440;-2.054;2023-07-31T14:12:49;9.10;;;3.40;;
77022;SDS011;65952;51.440;-2.054;2023-07-31T14:15:14;10.52;;;4.20;;
77022;SDS011;65952;51.440;-2.054;2023-07-31T14:17:40;10.25;;;4.32;;
77022;SDS011;65952;51.440;-2.054;2023-07-31T14:20:05;9.15;;;3.80;;
77022;SDS011;65952;51.440;-2.054;2023-07-31T14:22:31;8.15;;;3.65;;
77022;SDS011;65952;51.440;-2.054;2023-07-31T14:24:58;7.93;;;3.47;;
77022;SDS011;65952;51.440;-2.054;2023-07-31T14:27:24;10.15;;;3.63;;
77022;SDS011;65952;51.440;-2.054;2023-07-31T14:29:49;9.40;;;3.53;;
77022;SDS011;65952;51.440;-2.054;2023-07-31T14:32:15;9.18;;;3.75;;
77022;SDS011;65952;51.440;-2.054;2023-07-31T14:34:40;6.82;;;3.17;;
77022;SDS011;65952;51.440;-2.054;2023-07-31T14:37:06;7.10;;;3.10;;
77022;SDS011;65952;51.440;-2.054;2023-07-31T14:39:31;9.68;;;3.80;;
77022;SDS011;65952;51.440;-2.054;2023-07-31T14:41:56;9.35;;;4.25;;